SIA218 YMML-WSSS
Flight info
| Callsign | SIA218 |
|---|---|
| Flight time | N/A |
| Altitude | 36000 |
| Route | KEPPA Q168 WR T29 CIN/N0488F380 A576 ATMAP M635 SURGA T23 UGEBO UGEBO1A |
| Aircraft | B77W/H-SDE1E2E3FGHIJ4J5M1P2RWXYZ/LB1D1 |
Departure
| Time | 2026-04-30 13:48 |
|---|---|
| Airport | Melbourne Airport (YMML) |
Arrival
| Time | N/A |
|---|---|
| Airport | Singapore Changi Airport (WSSS) |
| Time | Latitude | Longitude | Altitude | Speed | Heading |
|---|---|---|---|---|---|
| 2026-04-30 12:39 | -37.66763 | 144.84314 | 391 ft | 0 kts | 82° |
| 2026-04-30 13:40 | -37.66765 | 144.84302 | 391 ft | 2 kts | 82° |
| 2026-04-30 13:40 | -37.66767 | 144.84283 | 392 ft | 2 kts | 82° |
| 2026-04-30 13:40 | -37.66769 | 144.84265 | 392 ft | 2 kts | 82° |
| 2026-04-30 13:41 | -37.66771 | 144.84245 | 393 ft | 2 kts | 82° |
| 2026-04-30 13:41 | -37.66772 | 144.84227 | 393 ft | 2 kts | 96° |
| 2026-04-30 13:41 | -37.66768 | 144.84209 | 394 ft | 2 kts | 121° |
| 2026-04-30 13:41 | -37.66758 | 144.84195 | 394 ft | 2 kts | 141° |
| 2026-04-30 13:42 | -37.66746 | 144.84184 | 394 ft | 2 kts | 161° |
| 2026-04-30 13:42 | -37.66737 | 144.84183 | 394 ft | 0 kts | 171° |
| 2026-04-30 13:44 | -37.66744 | 144.84184 | 394 ft | 2 kts | 172° |
| 2026-04-30 13:44 | -37.66781 | 144.84190 | 394 ft | 7 kts | 172° |
| 2026-04-30 13:44 | -37.66846 | 144.84203 | 395 ft | 11 kts | 171° |
| 2026-04-30 13:44 | -37.66943 | 144.84221 | 393 ft | 16 kts | 171° |
| 2026-04-30 13:45 | -37.67254 | 144.84280 | 385 ft | 26 kts | 172° |
| 2026-04-30 13:45 | -37.67444 | 144.84314 | 382 ft | 25 kts | 171° |
| 2026-04-30 13:45 | -37.67619 | 144.84348 | 380 ft | 26 kts | 171° |
| 2026-04-30 13:46 | -37.67806 | 144.84383 | 374 ft | 24 kts | 171° |
| 2026-04-30 13:46 | -37.67984 | 144.84416 | 368 ft | 27 kts | 172° |
| 2026-04-30 13:46 | -37.68165 | 144.84448 | 361 ft | 25 kts | 172° |
| 2026-04-30 13:46 | -37.68335 | 144.84465 | 352 ft | 24 kts | 195° |
| 2026-04-30 13:47 | -37.68491 | 144.84351 | 345 ft | 25 kts | 216° |
| 2026-04-30 13:47 | -37.68560 | 144.84190 | 345 ft | 17 kts | 261° |
| 2026-04-30 13:47 | -37.68564 | 144.84120 | 346 ft | 4 kts | 294° |
| 2026-04-30 13:47 | -37.68522 | 144.84096 | 347 ft | 10 kts | 349° |
| 2026-04-30 13:48 | -37.68379 | 144.84068 | 352 ft | 46 kts | 351° |
| 2026-04-30 13:48 | -37.67805 | 144.83962 | 371 ft | 117 kts | 351° |
| 2026-04-30 13:48 | -37.66793 | 144.83771 | 509 ft | 167 kts | 352° |
| 2026-04-30 13:48 | -37.65627 | 144.83562 | 1217 ft | 172 kts | 352° |
| 2026-04-30 13:49 | -37.64418 | 144.83319 | 1970 ft | 181 kts | 352° |
| 2026-04-30 13:49 | -37.63112 | 144.83077 | 2465 ft | 198 kts | 352° |
| 2026-04-30 13:49 | -37.61685 | 144.82814 | 2889 ft | 219 kts | 352° |
| 2026-04-30 13:49 | -37.60118 | 144.82523 | 3487 ft | 235 kts | 352° |
| 2026-04-30 13:50 | -37.58463 | 144.82213 | 4157 ft | 249 kts | 352° |
| 2026-04-30 13:50 | -37.55239 | 144.80652 | 5945 ft | 258 kts | 322° |
| 2026-04-30 13:50 | -37.53861 | 144.79193 | 6849 ft | 262 kts | 320° |
| 2026-04-30 13:51 | -37.52474 | 144.77653 | 7757 ft | 265 kts | 320° |
| 2026-04-30 13:51 | -37.51097 | 144.76117 | 8617 ft | 269 kts | 320° |
| 2026-04-30 13:51 | -37.49700 | 144.74561 | 9456 ft | 272 kts | 320° |
| 2026-04-30 13:51 | -37.48282 | 144.72983 | 10261 ft | 276 kts | 320° |
| 2026-04-30 13:52 | -37.46810 | 144.71347 | 10780 ft | 292 kts | 320° |
| 2026-04-30 13:52 | -37.45226 | 144.69588 | 11233 ft | 311 kts | 320° |
| 2026-04-30 13:52 | -37.43554 | 144.67731 | 11730 ft | 328 kts | 320° |
| 2026-04-30 13:52 | -37.41798 | 144.65781 | 12248 ft | 344 kts | 320° |
| 2026-04-30 13:53 | -37.39961 | 144.63742 | 12778 ft | 360 kts | 320° |
| 2026-04-30 13:53 | -37.38045 | 144.61618 | 13329 ft | 375 kts | 320° |
| 2026-04-30 13:53 | -37.36071 | 144.59430 | 14089 ft | 383 kts | 320° |
| 2026-04-30 13:53 | -37.34074 | 144.57217 | 15008 ft | 386 kts | 319° |
| 2026-04-30 13:54 | -37.32056 | 144.54985 | 15879 ft | 390 kts | 319° |
| 2026-04-30 13:54 | -37.30034 | 144.52750 | 16717 ft | 394 kts | 319° |
| 2026-04-30 13:54 | -37.27964 | 144.50462 | 17548 ft | 398 kts | 319° |
| 2026-04-30 13:54 | -37.25867 | 144.48146 | 18333 ft | 403 kts | 319° |
| 2026-04-30 13:55 | -37.23735 | 144.45795 | 19092 ft | 409 kts | 319° |
| 2026-04-30 13:55 | -37.21603 | 144.43445 | 19808 ft | 414 kts | 319° |
| 2026-04-30 13:55 | -37.19406 | 144.41025 | 20527 ft | 420 kts | 319° |
| 2026-04-30 13:55 | -37.17196 | 144.38592 | 21247 ft | 425 kts | 319° |
| 2026-04-30 13:56 | -37.14968 | 144.36144 | 21918 ft | 430 kts | 319° |
| 2026-04-30 13:56 | -37.12712 | 144.33666 | 22610 ft | 434 kts | 319° |
| 2026-04-30 13:56 | -37.10438 | 144.31169 | 23278 ft | 438 kts | 319° |
| 2026-04-30 13:56 | -37.08138 | 144.28645 | 23954 ft | 442 kts | 319° |
| 2026-04-30 13:57 | -37.05808 | 144.26092 | 24599 ft | 447 kts | 319° |
| 2026-04-30 13:57 | -37.03440 | 144.23500 | 25264 ft | 451 kts | 319° |
| 2026-04-30 13:57 | -37.01067 | 144.20905 | 25903 ft | 455 kts | 319° |
| 2026-04-30 13:57 | -36.98674 | 144.18288 | 26537 ft | 459 kts | 319° |
| 2026-04-30 13:58 | -36.96275 | 144.15668 | 27147 ft | 463 kts | 319° |
| 2026-04-30 13:58 | -36.91379 | 144.10329 | 28311 ft | 471 kts | 318° |
| 2026-04-30 13:58 | -36.88875 | 144.07600 | 28854 ft | 476 kts | 318° |
| 2026-04-30 13:59 | -36.86371 | 144.04877 | 29397 ft | 480 kts | 318° |
| 2026-04-30 13:59 | -36.83852 | 144.02136 | 30082 ft | 481 kts | 318° |
| 2026-04-30 13:59 | -36.81343 | 143.99412 | 30991 ft | 477 kts | 317° |
| 2026-04-30 13:59 | -36.78960 | 143.96567 | 31878 ft | 471 kts | 311° |
| 2026-04-30 14:00 | -36.76794 | 143.93514 | 32601 ft | 468 kts | 309° |
| 2026-04-30 14:00 | -36.72546 | 143.87419 | 33977 ft | 463 kts | 309° |
| 2026-04-30 14:00 | -36.70439 | 143.84402 | 34600 ft | 461 kts | 309° |
| 2026-04-30 14:01 | -36.68339 | 143.81400 | 35268 ft | 458 kts | 309° |
| 2026-04-30 14:01 | -36.66203 | 143.78349 | 35924 ft | 455 kts | 308° |
| 2026-04-30 14:01 | -36.64087 | 143.75331 | 36335 ft | 455 kts | 309° |
| 2026-04-30 14:01 | -36.61974 | 143.72317 | 36331 ft | 456 kts | 309° |
| 2026-04-30 14:02 | -36.57790 | 143.66365 | 36344 ft | 454 kts | 308° |
| 2026-04-30 14:02 | -36.53598 | 143.60413 | 36335 ft | 454 kts | 308° |
| 2026-04-30 14:03 | -36.49437 | 143.54515 | 36332 ft | 455 kts | 309° |
| 2026-04-30 14:03 | -36.45277 | 143.48630 | 36334 ft | 454 kts | 309° |
| 2026-04-30 14:04 | -36.41106 | 143.42738 | 36333 ft | 453 kts | 309° |
| 2026-04-30 14:04 | -36.36919 | 143.36836 | 36330 ft | 454 kts | 309° |
| 2026-04-30 14:05 | -36.32709 | 143.30913 | 36332 ft | 454 kts | 309° |
| 2026-04-30 14:05 | -36.28488 | 143.24983 | 36327 ft | 454 kts | 309° |
| 2026-04-30 14:06 | -36.22214 | 143.16190 | 36325 ft | 453 kts | 309° |
| 2026-04-30 14:07 | -36.15924 | 143.07397 | 36331 ft | 453 kts | 309° |
| 2026-04-30 14:08 | -36.09655 | 142.98656 | 36321 ft | 453 kts | 310° |
| 2026-04-30 14:08 | -36.03350 | 142.89888 | 36314 ft | 454 kts | 310° |
| 2026-04-30 14:09 | -35.99141 | 142.84047 | 36320 ft | 454 kts | 310° |
| 2026-04-30 14:10 | -35.92821 | 142.75296 | 36314 ft | 454 kts | 310° |
| 2026-04-30 14:10 | -35.88634 | 142.69513 | 36317 ft | 454 kts | 310° |
| 2026-04-30 14:11 | -35.84410 | 142.63686 | 36306 ft | 453 kts | 310° |
| 2026-04-30 14:11 | -35.80198 | 142.57887 | 35971 ft | 454 kts | 310° |
| 2026-04-30 14:11 | -35.78108 | 142.55013 | 36386 ft | 455 kts | 310° |
| 2026-04-30 14:12 | -35.75986 | 142.52098 | 36311 ft | 452 kts | 310° |
| 2026-04-30 14:12 | -35.71766 | 142.46307 | 36306 ft | 453 kts | 309° |
| 2026-04-30 14:13 | -35.67529 | 142.40505 | 36301 ft | 452 kts | 310° |
| 2026-04-30 14:13 | -35.63315 | 142.34743 | 36290 ft | 452 kts | 310° |
| 2026-04-30 14:14 | -35.59101 | 142.28992 | 36311 ft | 453 kts | 310° |
| 2026-04-30 14:14 | -35.54859 | 142.23212 | 36312 ft | 452 kts | 310° |
| 2026-04-30 14:15 | -35.50653 | 142.17490 | 36294 ft | 451 kts | 310° |
| 2026-04-30 14:15 | -35.46421 | 142.11743 | 36301 ft | 452 kts | 310° |
| 2026-04-30 14:16 | -35.42205 | 142.06027 | 36304 ft | 452 kts | 310° |
| 2026-04-30 14:16 | -35.37966 | 142.00288 | 36295 ft | 452 kts | 310° |
| 2026-04-30 14:17 | -35.33747 | 141.94588 | 36297 ft | 453 kts | 310° |
| 2026-04-30 14:17 | -35.29500 | 141.88860 | 36294 ft | 451 kts | 310° |
| 2026-04-30 14:18 | -35.25267 | 141.83160 | 36289 ft | 450 kts | 310° |
| 2026-04-30 14:18 | -35.18913 | 141.74622 | 36296 ft | 450 kts | 310° |
| 2026-04-30 14:19 | -35.12595 | 141.66153 | 36327 ft | 451 kts | 310° |
| 2026-04-30 14:20 | -35.08348 | 141.60471 | 36164 ft | 450 kts | 310° |
| 2026-04-30 14:20 | -35.06230 | 141.57642 | 36290 ft | 453 kts | 310° |
| 2026-04-30 14:20 | -35.01958 | 141.51942 | 36289 ft | 452 kts | 310° |
| 2026-04-30 14:21 | -34.97707 | 141.46278 | 36279 ft | 451 kts | 311° |
| 2026-04-30 14:22 | -34.91342 | 141.37819 | 36283 ft | 451 kts | 310° |
| 2026-04-30 14:22 | -34.84955 | 141.29352 | 36294 ft | 451 kts | 311° |
| 2026-04-30 14:23 | -34.76429 | 141.18080 | 36285 ft | 451 kts | 311° |
| 2026-04-30 14:24 | -34.70016 | 141.09625 | 36284 ft | 451 kts | 311° |
| 2026-04-30 14:25 | -34.61489 | 140.98416 | 36289 ft | 451 kts | 311° |
| 2026-04-30 14:26 | -34.55077 | 140.90013 | 36274 ft | 451 kts | 311° |
| 2026-04-30 14:27 | -34.48662 | 140.81624 | 36287 ft | 451 kts | 312° |
| 2026-04-30 14:27 | -34.44381 | 140.76039 | 36272 ft | 452 kts | 312° |
| 2026-04-30 14:28 | -34.37924 | 140.67630 | 36271 ft | 451 kts | 312° |
| 2026-04-30 14:28 | -34.33652 | 140.62077 | 36265 ft | 450 kts | 312° |
| 2026-04-30 14:29 | -34.25109 | 140.51003 | 36269 ft | 450 kts | 312° |
| 2026-04-30 14:31 | -34.14376 | 140.37137 | 36270 ft | 451 kts | 312° |
| 2026-04-30 14:31 | -34.07955 | 140.28868 | 36266 ft | 450 kts | 313° |
| 2026-04-30 14:32 | -34.01514 | 140.20593 | 36273 ft | 450 kts | 313° |
| 2026-04-30 14:33 | -33.97226 | 140.15096 | 36259 ft | 449 kts | 313° |
| 2026-04-30 14:33 | -33.90803 | 140.06877 | 36265 ft | 449 kts | 313° |
| 2026-04-30 14:34 | -33.86523 | 140.01411 | 36272 ft | 449 kts | 313° |
| 2026-04-30 14:34 | -33.82224 | 139.95929 | 36267 ft | 448 kts | 313° |
| 2026-04-30 14:35 | -33.75790 | 139.87741 | 36274 ft | 449 kts | 313° |
| 2026-04-30 14:36 | -33.71494 | 139.82285 | 36270 ft | 449 kts | 313° |
| 2026-04-30 14:36 | -33.67181 | 139.76816 | 36275 ft | 450 kts | 313° |
| 2026-04-30 14:37 | -33.62876 | 139.71365 | 36272 ft | 450 kts | 313° |
| 2026-04-30 14:37 | -33.58585 | 139.65939 | 36278 ft | 450 kts | 313° |
| 2026-04-30 14:38 | -33.54265 | 139.60487 | 36277 ft | 449 kts | 313° |
| 2026-04-30 14:38 | -33.49964 | 139.55067 | 36282 ft | 450 kts | 313° |
| 2026-04-30 14:39 | -33.45658 | 139.49648 | 36283 ft | 449 kts | 313° |
| 2026-04-30 14:39 | -33.41331 | 139.44212 | 36286 ft | 449 kts | 313° |
| 2026-04-30 14:40 | -33.34791 | 139.36182 | 36287 ft | 449 kts | 314° |
| 2026-04-30 14:40 | -33.30383 | 139.30907 | 36301 ft | 449 kts | 315° |
| 2026-04-30 14:41 | -33.25954 | 139.25606 | 36299 ft | 449 kts | 315° |
| 2026-04-30 14:41 | -33.21513 | 139.20296 | 36305 ft | 449 kts | 315° |
| 2026-04-30 14:42 | -33.17108 | 139.15033 | 36310 ft | 448 kts | 315° |
| 2026-04-30 14:42 | -33.12681 | 139.09752 | 36311 ft | 448 kts | 315° |
| 2026-04-30 14:43 | -33.08263 | 139.04489 | 36321 ft | 448 kts | 315° |
| 2026-04-30 14:43 | -33.03828 | 138.99213 | 36312 ft | 447 kts | 315° |
| 2026-04-30 14:44 | -32.99403 | 138.93956 | 36323 ft | 448 kts | 315° |
| 2026-04-30 14:44 | -32.94995 | 138.88727 | 36320 ft | 448 kts | 315° |
| 2026-04-30 14:45 | -32.90582 | 138.83501 | 36321 ft | 447 kts | 315° |
| 2026-04-30 14:45 | -32.86160 | 138.78271 | 36320 ft | 447 kts | 315° |
| 2026-04-30 14:46 | -32.81743 | 138.73056 | 36322 ft | 448 kts | 315° |
| 2026-04-30 14:46 | -32.77334 | 138.67856 | 36312 ft | 448 kts | 315° |
| 2026-04-30 14:47 | -32.72893 | 138.62628 | 36304 ft | 448 kts | 315° |
| 2026-04-30 14:47 | -32.68478 | 138.57439 | 36306 ft | 448 kts | 315° |
| 2026-04-30 14:48 | -32.64041 | 138.52229 | 36296 ft | 448 kts | 315° |
| 2026-04-30 14:48 | -32.59610 | 138.47035 | 36289 ft | 449 kts | 315° |
| 2026-04-30 14:49 | -32.55176 | 138.41844 | 36284 ft | 448 kts | 315° |
| 2026-04-30 14:49 | -32.50731 | 138.36650 | 36279 ft | 448 kts | 315° |
| 2026-04-30 14:50 | -32.44053 | 138.28859 | 36274 ft | 448 kts | 315° |
| 2026-04-30 14:51 | -32.37387 | 138.21100 | 36275 ft | 449 kts | 316° |
| 2026-04-30 14:52 | -32.30712 | 138.13347 | 36271 ft | 448 kts | 315° |
| 2026-04-30 14:52 | -32.24037 | 138.05611 | 36273 ft | 449 kts | 316° |
| 2026-04-30 14:53 | -32.17351 | 137.97879 | 36264 ft | 448 kts | 316° |
| 2026-04-30 14:54 | -32.08411 | 137.87567 | 36249 ft | 449 kts | 316° |
| 2026-04-30 14:55 | -32.01714 | 137.79862 | 36243 ft | 448 kts | 316° |
| 2026-04-30 14:56 | -31.92781 | 137.69609 | 36236 ft | 449 kts | 316° |
| 2026-04-30 14:57 | -31.86063 | 137.61917 | 36245 ft | 448 kts | 315° |
| 2026-04-30 14:58 | -31.77103 | 137.51686 | 36242 ft | 448 kts | 315° |
| 2026-04-30 14:58 | -31.70401 | 137.44051 | 36244 ft | 447 kts | 316° |
| 2026-04-30 15:00 | -31.59182 | 137.31308 | 36239 ft | 448 kts | 316° |
| 2026-04-30 15:01 | -31.50213 | 137.21152 | 36235 ft | 447 kts | 316° |
| 2026-04-30 15:01 | -31.43493 | 137.13562 | 36241 ft | 447 kts | 316° |
| 2026-04-30 15:02 | -31.39022 | 137.08521 | 36235 ft | 447 kts | 316° |
| 2026-04-30 15:03 | -31.27811 | 136.95911 | 36238 ft | 447 kts | 316° |
| 2026-04-30 15:04 | -31.16587 | 136.83330 | 36241 ft | 447 kts | 316° |
| 2026-04-30 15:06 | -31.05128 | 136.71046 | 36233 ft | 448 kts | 317° |
| 2026-04-30 15:07 | -30.95863 | 136.61285 | 36229 ft | 449 kts | 317° |
| 2026-04-30 15:08 | -30.86606 | 136.51549 | 36234 ft | 449 kts | 317° |
| 2026-04-30 15:09 | -30.74993 | 136.39366 | 36242 ft | 449 kts | 317° |
| 2026-04-30 15:09 | -30.70326 | 136.34480 | 36435 ft | 450 kts | 317° |
| 2026-04-30 15:10 | -30.65655 | 136.29599 | 36233 ft | 448 kts | 317° |
| 2026-04-30 15:11 | -30.51689 | 136.15041 | 36223 ft | 448 kts | 317° |
| 2026-04-30 15:13 | -30.40032 | 136.02934 | 36225 ft | 449 kts | 317° |
| 2026-04-30 15:14 | -30.23622 | 135.85959 | 36221 ft | 449 kts | 317° |
| 2026-04-30 15:17 | -30.02504 | 135.64230 | 36214 ft | 450 kts | 317° |
| 2026-04-30 15:19 | -29.83715 | 135.45006 | 36210 ft | 449 kts | 316° |